Date,TemperatureHighF,TemperatureAvgF,TemperatureLowF,DewpointHighF,DewpointAvgF,DewpointLowF,HumidityHigh,HumidityAvg,HumidityLow,PressureMaxIn,PressureMinIn,WindSpeedMaxMPH,WindSpeedAvgMPH,GustSpeedMaxMPH,PrecipitationSumIn
2013-2-1,45.0,21.3,10.0,25.0,15.7,8.0,99,82,33,0.00,40.00,5,1,7,0.00
2013-2-2,40.0,26.0,14.0,27.0,18.1,-99.9,93,75,45,0.00,40.00,7,-5,10,0.00
2013-2-3,46.0,31.1,19.0,25.0,21.8,15.0,95,71,36,0.00,40.00,12,3,17,0.00
2013-2-4,48.0,28.0,12.0,23.0,15.6,9.0,94,65,29,0.00,40.00,9,2,13,0.00
2013-2-5,50.0,33.2,18.0,26.0,18.1,9.0,84,56,21,0.00,40.00,12,4,18,0.00
2013-2-6,39.0,30.5,16.0,21.0,17.6,9.0,84,60,29,0.00,40.00,15,7,21,0.00
2013-2-7,42.0,28.0,11.0,21.0,15.4,8.0,90,62,35,0.00,40.00,19,9,27,0.00
2013-2-8,31.0,26.3,22.0,29.0,23.2,19.0,99,88,63,0.00,40.00,17,6,26,0.00
2013-2-9,25.0,20.3,14.0,23.0,18.0,9.0,98,90,78,0.00,40.00,21,11,27,0.00
2013-2-10,22.0,16.7,2.0,19.0,14.6,-2.0,97,91,80,0.00,40.00,22,9,31,0.00
2013-2-11,21.0,2.4,-11.0,13.0,-2.4,-16.0,95,81,50,0.00,40.00,10,2,13,0.00
2013-2-12,30.0,15.6,-7.0,20.0,8.6,-10.0,91,75,52,0.00,40.00,12,3,15,0.00
2013-2-13,39.0,23.8,2.0,26.0,17.1,0.0,98,77,49,0.00,40.00,14,3,18,0.00
2013-2-14,36.0,20.9,9.0,25.0,16.9,7.0,98,85,55,0.00,40.00,9,3,13,0.00
2013-2-15,42.0,23.5,7.0,25.0,16.3,5.0,97,77,39,0.00,40.00,7,2,9,0.00
2013-2-16,46.0,25.2,8.0,20.0,13.5,1.0,91,65,15,0.00,40.00,11,4,19,0.00
2013-2-17,39.0,29.1,11.0,22.0,14.3,6.0,86,55,36,0.00,40.00,23,9,30,0.00
2013-2-18,42.0,28.7,7.0,20.0,11.3,3.0,87,52,21,0.00,40.00,15,7,21,0.00
2013-2-19,36.0,30.0,25.0,27.0,18.4,12.0,97,63,45,0.00,40.00,19,13,34,0.00
2013-2-20,32.0,25.9,15.0,27.0,22.3,9.0,100,87,67,0.00,40.00,23,12,32,0.00
2013-2-21,28.0,19.1,10.0,12.0,7.3,-2.0,89,63,26,0.00,40.00,19,9,26,0.00
2013-2-22,33.0,23.9,7.0,19.0,13.9,4.0,90,67,45,0.00,40.00,16,7,22,0.00
2013-2-23,33.0,23.2,17.0,21.0,13.4,7.0,96,67,43,0.00,40.00,25,14,36,0.00
2013-2-24,27.0,20.6,16.0,16.0,10.5,2.0,95,68,34,0.00,40.00,25,17,33,0.00
2013-2-25,45.0,20.7,-2.0,21.0,6.9,-6.0,90,61,20,0.00,40.00,28,5,38,0.00
2013-2-26,30.0,19.8,10.0,15.0,8.9,0.0,92,66,29,0.00,40.00,17,8,25,0.00
2013-2-27,38.0,21.6,0.0,15.0,6.2,-4.0,88,56,24,0.00,40.00,14,4,19,0.00
2013-2-28,45.0,24.7,10.0,23.0,13.7,3.0,85,65,30,0.00,40.00,13,5,20,0.00